Latest Weather Observations for Westmere

IDV60801

Issued at 10:05 pm EST Monday 28 July 2014 (issued every 30 minutes, with the page automatically refreshed every 10 minutes)

About weather observations | Map of weather stations | Latest weather observations for VIC | Other Formats
Station Details ID: 089112 Name: WESTMERE Lat: -37.71 Lon: 142.94 Height: 226.0 m
Data from the previous 72 hours. | See also: Recent months at Westmere
Date/Time
EST
Temp
°C
App
Temp
°C
Dew
Point
Rel
Hum
%
Delta-T
°C
Wind Press
QNH
hPa
Press
MSL
hPa
Rain
since 9 am
mm
Dir
 
Spd
km/h
Gust
km/h
Spd
kts
Gust
kts
28/10:00pm 11.1 6.9 7.6 79 1.7 NNW 19 26 10 14 1012.3 1012.7 0.0
28/09:30pm 11.5 6.9 8.0 79 1.7 NW 22 32 12 17 1012.2 - 0.0
28/09:00pm 11.3 6.7 8.0 80 1.6 NNW 22 32 12 17 1012.0 1012.4 0.0
28/08:30pm 7.5 4.1 7.5 100 0.0 N 15 19 8 10 1011.9 - 0.0
28/08:00pm 6.9 3.3 6.9 100 0.0 N 15 17 8 9 1012.1 1012.5 0.0
28/07:30pm 7.4 3.6 7.4 100 0.0 NNE 17 20 9 11 1012.0 - 0.0
28/07:00pm 6.7 3.4 6.6 99 0.0 N 13 15 7 8 1012.2 1012.6 0.0
28/06:30pm 7.5 5.0 6.6 94 0.4 N 9 11 5 6 1012.0 - 0.0
28/06:00pm 10.1 6.9 7.0 81 1.5 NW 13 15 7 8 1012.0 1012.4 0.0
28/05:30pm 12.0 7.7 7.1 72 2.4 NW 19 24 10 13 1011.6 - 0.0
28/05:00pm 13.2 9.0 7.4 68 2.9 NNW 19 26 10 14 1011.5 1011.9 0.0
28/04:30pm 14.0 9.7 8.0 67 3.0 NW 20 28 11 15 1011.9 - 0.0
28/04:00pm 14.5 9.6 8.5 67 3.1 NW 24 35 13 19 1012.1 1012.5 0.0
28/03:30pm 14.6 8.5 8.3 66 3.2 NW 30 41 16 22 1012.2 - 0.0
28/03:00pm 14.8 8.3 8.1 64 3.4 NW 32 41 17 22 1012.1 1012.5 0.0
28/02:30pm 15.5 10.9 9.6 68 3.1 NW 24 35 13 19 1012.5 - 0.0
28/02:00pm 15.0 11.3 10.2 73 2.5 NNW 20 30 11 16 1012.2 1012.6 0.0
28/01:30pm 14.6 12.7 11.7 83 1.6 NNW 13 24 7 13 1012.7 - 0.0
28/01:00pm 13.6 10.1 10.8 83 1.5 NNW 20 30 11 16 1013.2 1013.5 0.0
28/12:30pm 14.1 10.2 10.9 81 1.7 N 22 32 12 17 1013.7 - 0.0
28/12:00pm 13.1 8.7 10.3 83 1.5 N 24 30 13 16 1014.3 1014.7 0.0
28/11:30am 13.7 10.1 10.7 82 1.6 N 20 28 11 15 1014.6 - 0.0
28/11:00am 13.0 9.3 10.2 83 1.5 N 20 26 11 14 1014.9 1015.3 0.0
28/10:30am 11.6 7.5 8.8 83 1.4 N 20 26 11 14 1015.1 - 0.0
28/10:00am 10.7 6.7 8.3 85 1.2 N 19 24 10 13 1015.1 1015.5 0.0
28/09:30am 9.8 5.7 7.9 88 0.9 N 19 26 10 14 1014.9 - 0.0
28/09:00am 8.3 3.8 7.1 92 0.6 N 20 26 11 14 1015.0 1015.4 0.0
28/08:30am 7.3 2.3 6.4 94 0.4 N 22 32 12 17 1014.9 - 0.0
28/08:00am 6.3 1.8 6.0 98 0.1 N 19 24 10 13 1014.9 1015.3 0.0
28/07:30am 5.9 2.1 5.6 98 0.1 N 15 22 8 12 1015.1 - 0.0
28/07:00am 6.1 1.5 5.8 98 0.1 N 19 24 10 13 1015.1 1015.5 0.0
28/06:30am 6.4 2.2 5.7 95 0.3 N 17 22 9 12 1015.3 - 0.0
28/06:00am 6.9 2.3 5.5 91 0.6 N 19 24 10 13 1015.0 1015.4 0.0
28/05:30am 7.3 2.7 5.6 89 0.8 N 19 24 10 13 1014.9 - 0.0
28/05:00am 7.8 2.6 5.6 86 1.0 N 22 32 12 17 1015.0 1015.4 0.0
28/04:30am 7.9 2.4 5.7 86 1.0 N 24 33 13 18 1014.9 - 0.0
28/04:00am 7.6 2.5 5.9 89 0.8 N 22 30 12 16 1015.4 1015.8 0.0
28/03:30am 8.1 3.0 5.9 86 1.0 N 22 28 12 15 1015.7 - 0.0
28/03:00am 8.1 3.4 5.9 86 1.0 N 20 26 11 14 1016.0 1016.4 0.0
28/02:30am 8.3 3.6 5.9 85 1.1 N 20 33 11 18 1016.2 - 0.0
28/02:00am 9.1 3.7 6.2 82 1.3 N 24 32 13 17 1016.3 1016.7 0.0
28/01:30am 9.1 3.3 6.4 83 1.3 N 26 33 14 18 1016.4 - 0.0
28/01:00am 9.1 3.7 6.5 84 1.2 N 24 32 13 17 1016.8 1017.2 0.0
28/12:30am 9.2 3.5 6.6 84 1.2 N 26 33 14 18 1017.0 - 0.0
28/12:00am 9.3 4.0 6.9 85 1.1 N 24 32 13 17 1017.5 1017.9 0.0
 
Date/Time
EST
Temp
°C
App
Temp
°C
Dew
Point
Rel
Hum
%
Delta-T
°C
Wind Press
QNH
hPa
Press
MSL
hPa
Rain
since 9 am
mm
Dir
 
Spd
km/h
Gust
km/h
Spd
kts
Gust
kts
27/11:30pm 9.7 4.5 7.1 84 1.2 N 24 33 13 18 1017.9 - 0.0
27/11:00pm 9.7 3.8 7.5 86 1.1 N 28 35 15 19 1017.7 1018.1 0.0
27/10:30pm 9.2 4.6 8.0 92 0.6 N 22 30 12 16 1018.0 - 0.0
27/10:00pm 9.3 4.8 8.4 94 0.4 N 22 30 12 16 1018.2 1018.6 0.0
27/09:30pm 9.4 5.3 8.5 94 0.4 N 20 28 11 15 1018.7 - 0.0
27/09:00pm 9.5 5.7 8.9 96 0.3 N 19 24 10 13 1018.7 1019.1 0.0
27/08:30pm 8.3 4.7 8.3 100 0.0 N 17 19 9 10 1018.9 - 0.0
27/08:00pm 9.3 5.5 9.2 99 0.0 N 19 24 10 13 1019.1 1019.5 0.0
27/07:30pm 9.1 6.0 9.0 99 0.0 N 15 19 8 10 1019.4 - 0.0
27/07:00pm 10.0 6.9 8.9 93 0.5 N 15 20 8 11 1019.4 1019.8 0.0
27/06:30pm 10.4 7.3 8.8 90 0.8 N 15 19 8 10 1019.4 - 0.0
27/06:00pm 11.3 8.0 9.6 89 0.9 N 17 22 9 12 1019.1 1019.5 0.0
27/05:30pm 11.9 8.6 9.5 85 1.2 N 17 24 9 13 1018.8 - 0.0
27/05:00pm 12.7 8.9 9.7 82 1.5 N 20 28 11 15 1018.5 1018.9 0.0
27/04:30pm 12.8 8.9 9.3 79 1.8 NNW 20 32 11 17 1018.7 - 0.0
27/04:00pm 13.5 9.3 9.7 78 2.0 N 22 32 12 17 1018.5 1018.9 0.0
27/03:30pm 13.7 9.8 10.7 82 1.6 N 22 32 12 17 1019.1 - 0.0
27/03:00pm 13.3 9.4 10.7 84 1.4 NNW 22 28 12 15 1019.7 1020.1 0.0
27/02:30pm 13.1 10.1 10.8 86 1.2 N 17 30 9 16 1019.5 - 0.0
27/02:00pm 12.3 7.8 10.0 86 1.2 N 24 33 13 18 1020.0 1020.4 0.0
27/01:30pm 12.2 7.6 9.8 85 1.2 NNW 24 33 13 18 1019.9 - 0.0
27/01:00pm 12.2 8.0 9.8 85 1.2 N 22 35 12 19 1020.5 1020.9 0.0
27/12:30pm 12.0 7.9 10.2 89 0.9 N 22 30 12 16 1021.0 - 0.0
27/12:00pm 11.7 7.4 10.9 95 0.4 N 24 33 13 18 1021.8 1022.2 0.0
27/11:30am 11.6 6.3 11.4 99 0.1 N 30 44 16 24 1021.8 - 0.0
27/11:00am 10.8 6.1 10.8 100 0.0 N 26 37 14 20 1022.2 1022.6 0.0
27/10:30am 10.2 5.7 10.2 100 0.0 N 24 35 13 19 1022.5 - 0.0
27/10:00am 9.4 4.7 9.4 100 0.0 N 24 35 13 19 1023.0 1023.4 0.0
27/09:30am 8.6 4.1 8.6 100 0.0 N 22 30 12 16 1023.3 - 0.0
27/09:00am 7.9 3.8 7.9 100 0.0 N 19 28 10 15 1023.6 1024.0 0.2
27/08:30am 6.8 2.5 6.8 100 0.0 N 19 24 10 13 1023.8 - 0.2
27/08:00am 5.8 1.6 5.8 100 0.0 N 17 20 9 11 1023.8 1024.2 0.0
27/07:30am 5.6 2.1 5.6 100 0.0 N 13 17 7 9 1023.7 - 0.0
27/07:00am 3.9 0.9 3.9 100 0.0 N 9 15 5 8 1023.7 1024.1 0.0
27/06:30am 4.0 0.2 4.0 100 0.0 N 13 19 7 10 1023.6 - 0.0
27/06:00am 5.1 1.1 5.1 100 0.0 N 15 17 8 9 1023.6 1024.0 0.0
27/05:30am 5.2 1.3 5.2 100 0.0 N 15 19 8 10 1023.6 - 0.0
27/05:00am 4.1 0.7 4.1 100 0.0 N 11 17 6 9 1023.8 1024.2 0.0
27/04:30am 4.6 0.9 4.6 100 0.0 N 13 15 7 8 1024.1 - 0.0
27/04:00am 4.6 0.9 4.6 100 0.0 N 13 15 7 8 1024.2 1024.6 0.0
27/03:30am 5.2 1.3 5.2 100 0.0 N 15 19 8 10 1024.2 - 0.0
27/03:00am 4.2 0.8 4.2 100 0.0 N 11 15 6 8 1024.4 1024.8 0.0
27/02:30am 3.6 -0.3 3.6 100 0.0 N 13 15 7 8 1024.4 - 0.0
27/02:00am 4.1 0.3 4.1 100 0.0 N 13 15 7 8 1024.7 1025.2 0.0
27/01:30am 4.5 0.8 4.5 100 0.0 N 13 15 7 8 1024.9 - 0.0
27/01:00am 4.3 0.6 4.3 100 0.0 N 13 15 7 8 1024.9 1025.4 0.0
27/12:30am 3.5 0.4 3.5 100 0.0 N 9 13 5 7 1025.3 - 0.0
27/12:00am 2.8 -0.4 2.8 100 0.0 N 9 13 5 7 1025.6 1026.1 0.0
 
Date/Time
EST
Temp
°C
App
Temp
°C
Dew
Point
Rel
Hum
%
Delta-T
°C
Wind Press
QNH
hPa
Press
MSL
hPa
Rain
since 9 am
mm
Dir
 
Spd
km/h
Gust
km/h
Spd
kts
Gust
kts
26/11:30pm 2.6 -0.3 2.6 100 0.0 N 7 9 4 5 1025.6 - 0.0
26/11:00pm 3.1 0.5 3.1 100 0.0 N 6 7 3 4 1025.9 1026.4 0.0
26/10:30pm 3.4 0.6 3.4 100 0.0 N 7 9 4 5 1026.1 - 0.0
26/10:00pm 3.1 0.5 3.1 100 0.0 W 6 6 3 3 1026.0 1026.5 0.0
26/09:30pm 4.2 2.2 4.2 100 0.0 W 4 6 2 3 1026.0 - 0.0
26/09:00pm 5.2 3.4 5.2 100 0.0 W 4 7 2 4 1026.1 1026.6 0.0
26/08:30pm 7.3 6.7 7.3 100 0.0 CALM 0 0 0 0 1025.8 - 0.0
26/08:00pm 8.1 7.7 8.1 100 0.0 CALM 0 0 0 0 1025.7 1026.2 0.0
26/07:30pm 7.2 6.6 7.2 100 0.0 CALM 0 0 0 0 1025.7 - 0.0
26/07:00pm 8.5 7.8 8.5 100 0.0 W 2 2 1 1 1025.6 1026.1 0.0
26/06:30pm 9.2 8.3 9.2 100 0.0 W 4 6 2 3 1025.4 - 0.0
26/06:00pm 9.7 8.3 9.6 99 0.1 WSW 7 9 4 5 1025.0 1025.5 0.0
26/05:30pm 11.1 10.6 10.8 98 0.2 WSW 4 6 2 3 1024.7 - 0.0
26/05:00pm 11.7 11.3 11.1 96 0.3 W 4 7 2 4 1024.5 1024.9 0.0
26/04:30pm 11.0 9.9 10.7 98 0.2 W 7 9 4 5 1024.4 - 0.0
26/04:00pm 11.9 10.0 10.5 91 0.7 W 11 15 6 8 1024.2 1024.6 0.0
26/03:30pm 11.8 9.9 10.5 92 0.7 WSW 11 17 6 9 1024.1 - 0.0
26/03:00pm 11.4 8.2 11.2 99 0.1 WSW 19 28 10 15 1023.9 1024.3 0.0
26/02:30pm 12.5 9.5 10.6 88 1.0 W 17 24 9 13 1023.6 - 0.0
26/02:00pm 12.2 9.1 10.4 89 0.9 W 17 24 9 13 1023.3 1023.7 0.0
26/01:30pm 12.3 9.4 11.0 92 0.7 W 17 24 9 13 1023.4 - 0.0
26/01:00pm 12.7 9.7 10.8 88 1.0 WSW 17 30 9 16 1023.7 1024.1 0.0
26/12:30pm 12.5 9.6 10.9 90 0.8 W 17 28 9 15 1023.9 - 0.0
26/12:00pm 11.5 8.5 10.7 95 0.4 W 17 26 9 14 1024.2 1024.6 0.0
26/11:30am 11.4 8.9 11.2 99 0.1 W 15 24 8 13 1024.2 - 0.0
26/11:00am 11.4 8.6 11.2 99 0.1 W 17 26 9 14 1024.3 1024.7 0.0
26/10:30am 11.2 8.7 11.2 100 0.0 W 15 22 8 12 1024.4 - 0.0
26/10:00am 11.0 8.5 11.0 100 0.0 W 15 26 8 14 1024.3 1024.7 0.0
26/09:30am 10.2 7.8 10.2 100 0.0 NW 13 17 7 9 1024.1 - 0.0
26/09:00am 9.5 7.3 9.5 100 0.0 WNW 11 15 6 8 1023.9 1024.3 1.0
26/08:30am 9.4 7.2 9.4 100 0.0 NW 11 15 6 8 1023.6 - 1.0
26/08:00am 8.9 7.0 8.9 100 0.0 NW 9 11 5 6 1023.3 1023.7 1.0
26/07:30am 8.5 6.8 8.5 100 0.0 NW 7 11 4 6 1023.0 - 1.0
26/07:00am 9.0 6.7 9.0 100 0.0 WNW 11 15 6 8 1022.6 1023.0 1.0
26/06:30am 8.4 6.3 8.4 100 0.0 WNW 9 13 5 7 1022.3 - 1.0
26/06:00am 8.7 5.6 8.7 100 0.0 WNW 15 20 8 11 1021.8 1022.2 1.0
26/05:30am 8.5 5.7 8.5 100 0.0 NW 13 19 7 10 1021.5 - 1.0
26/05:00am 8.9 5.8 8.9 100 0.0 NW 15 20 8 11 1021.3 1021.8 1.0
26/04:30am 9.5 6.9 9.5 100 0.0 WNW 13 19 7 10 1021.0 - 1.0
26/04:00am 9.8 7.3 9.8 100 0.0 NW 13 19 7 10 1020.9 1021.4 1.0
26/03:30am 9.7 8.0 9.7 100 0.0 NW 9 15 5 8 1020.8 - 1.0
26/03:00am 9.8 7.7 9.8 100 0.0 NW 11 15 6 8 1020.6 1021.0 1.0
26/02:30am 9.8 7.7 9.8 100 0.0 NW 11 15 6 8 1020.6 - 1.0
26/02:00am 9.7 7.2 9.7 100 0.0 NW 13 19 7 10 1020.4 1020.8 1.0
26/01:30am 9.9 7.5 9.9 100 0.0 NW 13 19 7 10 1020.3 - 1.0
26/01:00am 9.9 7.1 9.9 100 0.0 NW 15 19 8 10 1020.1 1020.5 0.8
26/12:30am 10.0 7.6 10.0 100 0.0 NW 13 19 7 10 1020.1 - 0.8
26/12:00am 10.0 7.2 10.0 100 0.0 NW 15 19 8 10 1020.0 1020.4 0.6
 
Date/Time
EST
Temp
°C
App
Temp
°C
Dew
Point
Rel
Hum
%
Delta-T
°C
Wind Press
QNH
hPa
Press
MSL
hPa
Rain
since 9 am
mm
Dir
 
Spd
km/h
Gust
km/h
Spd
kts
Gust
kts
25/11:30pm 10.1 7.3 10.1 100 0.0 NW 15 20 8 11 1019.8 - 0.6
25/11:00pm 10.1 6.9 10.1 100 0.0 NW 17 22 9 12 1019.7 1020.1 0.6
25/10:30pm 9.7 7.2 9.7 100 0.0 NW 13 17 7 9 1019.6 - 0.6

Other Formats:

Comma delimited format used in spreadsheet applications
http://www.bom.gov.au/fwo/IDV60801/IDV60801.95840.axf

JavaScript Object Notation format (JSON) in row-major order
http://www.bom.gov.au/fwo/IDV60801/IDV60801.95840.json